sensor_id;sensor_type;location;lat;lon;timestamp;P1;durP1;ratioP1;P2;durP2;ratioP2
21661;SDS011;10992;48.170;8.596;2024-02-15T00:02:23;7.00;;;4.20;;
21661;SDS011;10992;48.170;8.596;2024-02-15T00:04:50;6.03;;;3.83;;
21661;SDS011;10992;48.170;8.596;2024-02-15T00:07:17;6.00;;;4.20;;
21661;SDS011;10992;48.170;8.596;2024-02-15T00:09:48;4.82;;;3.90;;
21661;SDS011;10992;48.170;8.596;2024-02-15T00:12:15;5.03;;;3.83;;
21661;SDS011;10992;48.170;8.596;2024-02-15T00:14:42;7.93;;;3.60;;
21661;SDS011;10992;48.170;8.596;2024-02-15T00:17:09;9.20;;;4.07;;
21661;SDS011;10992;48.170;8.596;2024-02-15T00:19:38;6.00;;;3.80;;
21661;SDS011;10992;48.170;8.596;2024-02-15T00:22:08;9.25;;;5.07;;
21661;SDS011;10992;48.170;8.596;2024-02-15T00:24:36;7.90;;;4.63;;
21661;SDS011;10992;48.170;8.596;2024-02-15T00:27:04;7.57;;;4.95;;
21661;SDS011;10992;48.170;8.596;2024-02-15T00:29:31;10.88;;;6.50;;
21661;SDS011;10992;48.170;8.596;2024-02-15T00:32:02;8.57;;;5.32;;
21661;SDS011;10992;48.170;8.596;2024-02-15T00:34:30;8.02;;;5.63;;
21661;SDS011;10992;48.170;8.596;2024-02-15T00:36:58;7.88;;;5.22;;
21661;SDS011;10992;48.170;8.596;2024-02-15T00:39:25;6.90;;;4.90;;
21661;SDS011;10992;48.170;8.596;2024-02-15T00:41:52;6.20;;;4.85;;
21661;SDS011;10992;48.170;8.596;2024-02-15T00:44:19;7.22;;;4.53;;
21661;SDS011;10992;48.170;8.596;2024-02-15T00:46:45;8.13;;;4.82;;
21661;SDS011;10992;48.170;8.596;2024-02-15T00:49:14;7.07;;;4.78;;
21661;SDS011;10992;48.170;8.596;2024-02-15T00:51:41;5.85;;;4.63;;
21661;SDS011;10992;48.170;8.596;2024-02-15T00:54:08;6.95;;;4.78;;
21661;SDS011;10992;48.170;8.596;2024-02-15T00:56:35;7.80;;;4.30;;
21661;SDS011;10992;48.170;8.596;2024-02-15T00:59:02;7.15;;;5.07;;
21661;SDS011;10992;48.170;8.596;2024-02-15T01:01:30;5.78;;;4.75;;
21661;SDS011;10992;48.170;8.596;2024-02-15T01:03:57;7.43;;;5.13;;
21661;SDS011;10992;48.170;8.596;2024-02-15T01:06:24;6.45;;;4.75;;
21661;SDS011;10992;48.170;8.596;2024-02-15T01:08:51;8.52;;;5.28;;
21661;SDS011;10992;48.170;8.596;2024-02-15T01:11:18;7.80;;;5.43;;
21661;SDS011;10992;48.170;8.596;2024-02-15T01:13:45;8.52;;;5.22;;
21661;SDS011;10992;48.170;8.596;2024-02-15T01:16:12;8.32;;;5.95;;
21661;SDS011;10992;48.170;8.596;2024-02-15T01:18:39;10.13;;;5.85;;
21661;SDS011;10992;48.170;8.596;2024-02-15T01:21:06;9.52;;;5.68;;
21661;SDS011;10992;48.170;8.596;2024-02-15T01:23:33;9.38;;;6.43;;
21661;SDS011;10992;48.170;8.596;2024-02-15T01:26:03;12.50;;;6.70;;
21661;SDS011;10992;48.170;8.596;2024-02-15T01:28:31;11.15;;;6.60;;
21661;SDS011;10992;48.170;8.596;2024-02-15T01:30:58;9.90;;;6.30;;
21661;SDS011;10992;48.170;8.596;2024-02-15T01:33:25;8.20;;;5.85;;
21661;SDS011;10992;48.170;8.596;2024-02-15T01:35:53;12.80;;;6.47;;
21661;SDS011;10992;48.170;8.596;2024-02-15T01:38:21;8.90;;;5.20;;
21661;SDS011;10992;48.170;8.596;2024-02-15T01:40:48;11.80;;;5.85;;
21661;SDS011;10992;48.170;8.596;2024-02-15T01:43:15;8.55;;;5.57;;
21661;SDS011;10992;48.170;8.596;2024-02-15T01:45:42;8.43;;;5.80;;
21661;SDS011;10992;48.170;8.596;2024-02-15T01:48:09;10.95;;;5.43;;
21661;SDS011;10992;48.170;8.596;2024-02-15T01:50:37;7.18;;;5.70;;
21661;SDS011;10992;48.170;8.596;2024-02-15T01:53:05;7.72;;;5.43;;
21661;SDS011;10992;48.170;8.596;2024-02-15T01:55:35;9.93;;;5.60;;
21661;SDS011;10992;48.170;8.596;2024-02-15T01:58:02;9.98;;;6.15;;
21661;SDS011;10992;48.170;8.596;2024-02-15T02:00:30;9.05;;;6.70;;
21661;SDS011;10992;48.170;8.596;2024-02-15T02:02:57;10.05;;;6.90;;
21661;SDS011;10992;48.170;8.596;2024-02-15T02:05:29;9.85;;;6.68;;
21661;SDS011;10992;48.170;8.596;2024-02-15T02:07:58;10.63;;;7.00;;
21661;SDS011;10992;48.170;8.596;2024-02-15T02:10:28;12.10;;;7.03;;
21661;SDS011;10992;48.170;8.596;2024-02-15T02:13:00;9.23;;;6.88;;
21661;SDS011;10992;48.170;8.596;2024-02-15T02:15:31;15.43;;;8.63;;
21661;SDS011;10992;48.170;8.596;2024-02-15T02:17:58;17.20;;;10.05;;
21661;SDS011;10992;48.170;8.596;2024-02-15T02:20:26;16.80;;;11.23;;
21661;SDS011;10992;48.170;8.596;2024-02-15T02:22:54;13.10;;;9.63;;
21661;SDS011;10992;48.170;8.596;2024-02-15T02:25:34;12.23;;;9.23;;
21661;SDS011;10992;48.170;8.596;2024-02-15T02:28:01;16.63;;;10.05;;
21661;SDS011;10992;48.170;8.596;2024-02-15T02:30:28;12.20;;;9.43;;
21661;SDS011;10992;48.170;8.596;2024-02-15T02:32:56;13.82;;;9.55;;
21661;SDS011;10992;48.170;8.596;2024-02-15T02:35:23;18.67;;;9.98;;
21661;SDS011;10992;48.170;8.596;2024-02-15T02:37:50;14.18;;;9.48;;
21661;SDS011;10992;48.170;8.596;2024-02-15T02:40:19;13.73;;;9.23;;
21661;SDS011;10992;48.170;8.596;2024-02-15T02:45:22;15.52;;;11.75;;
21661;SDS011;10992;48.170;8.596;2024-02-15T02:47:50;16.23;;;11.68;;
21661;SDS011;10992;48.170;8.596;2024-02-15T02:50:22;19.77;;;12.45;;
21661;SDS011;10992;48.170;8.596;2024-02-15T02:52:50;16.52;;;11.40;;
21661;SDS011;10992;48.170;8.596;2024-02-15T02:55:17;14.80;;;10.73;;
21661;SDS011;10992;48.170;8.596;2024-02-15T02:57:45;16.73;;;11.30;;
21661;SDS011;10992;48.170;8.596;2024-02-15T03:00:13;15.68;;;10.43;;
21661;SDS011;10992;48.170;8.596;2024-02-15T03:02:42;16.20;;;10.63;;
21661;SDS011;10992;48.170;8.596;2024-02-15T03:05:10;17.65;;;11.02;;
21661;SDS011;10992;48.170;8.596;2024-02-15T03:07:41;21.50;;;12.10;;
21661;SDS011;10992;48.170;8.596;2024-02-15T03:10:08;16.00;;;9.70;;
21661;SDS011;10992;48.170;8.596;2024-02-15T03:12:40;16.90;;;10.80;;
21661;SDS011;10992;48.170;8.596;2024-02-15T03:15:14;13.98;;;10.30;;
21661;SDS011;10992;48.170;8.596;2024-02-15T03:17:43;17.63;;;11.25;;
21661;SDS011;10992;48.170;8.596;2024-02-15T03:20:11;18.38;;;10.80;;
21661;SDS011;10992;48.170;8.596;2024-02-15T03:22:56;13.45;;;9.82;;
21661;SDS011;10992;48.170;8.596;2024-02-15T03:25:25;16.17;;;10.45;;
21661;SDS011;10992;48.170;8.596;2024-02-15T03:27:53;15.18;;;10.07;;
21661;SDS011;10992;48.170;8.596;2024-02-15T03:30:25;12.57;;;9.20;;
21661;SDS011;10992;48.170;8.596;2024-02-15T03:32:53;14.02;;;10.13;;
21661;SDS011;10992;48.170;8.596;2024-02-15T03:35:22;15.73;;;9.75;;
21661;SDS011;10992;48.170;8.596;2024-02-15T03:37:50;13.93;;;9.48;;
21661;SDS011;10992;48.170;8.596;2024-02-15T03:40:18;11.80;;;8.68;;
21661;SDS011;10992;48.170;8.596;2024-02-15T03:42:45;13.77;;;9.07;;
21661;SDS011;10992;48.170;8.596;2024-02-15T03:45:13;16.15;;;10.98;;
21661;SDS011;10992;48.170;8.596;2024-02-15T03:47:40;17.50;;;10.93;;
21661;SDS011;10992;48.170;8.596;2024-02-15T03:50:07;15.60;;;9.65;;
21661;SDS011;10992;48.170;8.596;2024-02-15T03:52:38;13.98;;;9.63;;
21661;SDS011;10992;48.170;8.596;2024-02-15T03:55:05;16.73;;;10.20;;
21661;SDS011;10992;48.170;8.596;2024-02-15T03:57:39;21.83;;;11.57;;
21661;SDS011;10992;48.170;8.596;2024-02-15T04:00:13;21.08;;;12.27;;
21661;SDS011;10992;48.170;8.596;2024-02-15T04:02:47;22.60;;;13.68;;
21661;SDS011;10992;48.170;8.596;2024-02-15T04:05:15;24.98;;;14.55;;
21661;SDS011;10992;48.170;8.596;2024-02-15T04:07:44;26.20;;;13.68;;
21661;SDS011;10992;48.170;8.596;2024-02-15T04:10:11;24.15;;;14.63;;
21661;SDS011;10992;48.170;8.596;2024-02-15T04:12:38;26.33;;;15.57;;
21661;SDS011;10992;48.170;8.596;2024-02-15T04:15:08;22.02;;;14.73;;
21661;SDS011;10992;48.170;8.596;2024-02-15T04:17:40;23.80;;;13.32;;
21661;SDS011;10992;48.170;8.596;2024-02-15T04:20:08;25.50;;;14.30;;
21661;SDS011;10992;48.170;8.596;2024-02-15T04:22:36;26.77;;;14.40;;
21661;SDS011;10992;48.170;8.596;2024-02-15T04:25:09;23.10;;;13.27;;
21661;SDS011;10992;48.170;8.596;2024-02-15T04:27:38;22.38;;;13.00;;
21661;SDS011;10992;48.170;8.596;2024-02-15T04:30:06;20.17;;;13.20;;
21661;SDS011;10992;48.170;8.596;2024-02-15T04:32:37;23.58;;;12.65;;
21661;SDS011;10992;48.170;8.596;2024-02-15T04:35:04;21.75;;;13.70;;
21661;SDS011;10992;48.170;8.596;2024-02-15T04:37:34;24.27;;;14.70;;
21661;SDS011;10992;48.170;8.596;2024-02-15T04:40:01;22.23;;;14.25;;
21661;SDS011;10992;48.170;8.596;2024-02-15T04:42:34;21.85;;;14.40;;
21661;SDS011;10992;48.170;8.596;2024-02-15T04:45:03;29.05;;;14.85;;
21661;SDS011;10992;48.170;8.596;2024-02-15T04:47:35;23.70;;;14.30;;
21661;SDS011;10992;48.170;8.596;2024-02-15T04:50:02;25.15;;;15.27;;
21661;SDS011;10992;48.170;8.596;2024-02-15T04:52:32;21.52;;;13.82;;
21661;SDS011;10992;48.170;8.596;2024-02-15T04:55:00;24.48;;;13.52;;
21661;SDS011;10992;48.170;8.596;2024-02-15T04:57:31;27.00;;;16.67;;
21661;SDS011;10992;48.170;8.596;2024-02-15T05:00:00;24.40;;;15.18;;
21661;SDS011;10992;48.170;8.596;2024-02-15T05:02:28;27.95;;;16.42;;
21661;SDS011;10992;48.170;8.596;2024-02-15T05:04:54;26.10;;;15.50;;
21661;SDS011;10992;48.170;8.596;2024-02-15T05:07:23;34.10;;;19.92;;
21661;SDS011;10992;48.170;8.596;2024-02-15T05:09:50;29.92;;;18.77;;
21661;SDS011;10992;48.170;8.596;2024-02-15T05:12:21;30.02;;;19.42;;
21661;SDS011;10992;48.170;8.596;2024-02-15T05:14:52;29.65;;;18.17;;
21661;SDS011;10992;48.170;8.596;2024-02-15T05:17:20;31.20;;;18.80;;
21661;SDS011;10992;48.170;8.596;2024-02-15T05:19:49;30.15;;;18.48;;
21661;SDS011;10992;48.170;8.596;2024-02-15T05:22:16;32.92;;;18.73;;
21661;SDS011;10992;48.170;8.596;2024-02-15T05:24:44;33.28;;;18.83;;
21661;SDS011;10992;48.170;8.596;2024-02-15T05:27:11;36.47;;;20.15;;
21661;SDS011;10992;48.170;8.596;2024-02-15T05:29:39;29.13;;;18.27;;
21661;SDS011;10992;48.170;8.596;2024-02-15T05:32:09;32.15;;;19.02;;
21661;SDS011;10992;48.170;8.596;2024-02-15T05:34:37;35.83;;;19.95;;
21661;SDS011;10992;48.170;8.596;2024-02-15T05:37:06;32.60;;;19.55;;
21661;SDS011;10992;48.170;8.596;2024-02-15T05:39:33;38.70;;;21.40;;
21661;SDS011;10992;48.170;8.596;2024-02-15T05:42:00;47.05;;;24.17;;
21661;SDS011;10992;48.170;8.596;2024-02-15T05:44:27;35.90;;;22.13;;
21661;SDS011;10992;48.170;8.596;2024-02-15T05:46:54;35.35;;;21.20;;
21661;SDS011;10992;48.170;8.596;2024-02-15T05:49:21;40.78;;;24.33;;
21661;SDS011;10992;48.170;8.596;2024-02-15T05:51:50;39.08;;;22.90;;
21661;SDS011;10992;48.170;8.596;2024-02-15T05:54:17;42.55;;;23.38;;
21661;SDS011;10992;48.170;8.596;2024-02-15T05:56:45;42.42;;;24.92;;
21661;SDS011;10992;48.170;8.596;2024-02-15T05:59:18;45.70;;;23.30;;
21661;SDS011;10992;48.170;8.596;2024-02-15T06:01:46;41.30;;;23.42;;
21661;SDS011;10992;48.170;8.596;2024-02-15T06:04:15;43.03;;;24.27;;
21661;SDS011;10992;48.170;8.596;2024-02-15T06:06:43;43.78;;;24.17;;
21661;SDS011;10992;48.170;8.596;2024-02-15T06:09:15;45.58;;;25.40;;
21661;SDS011;10992;48.170;8.596;2024-02-15T06:11:42;47.47;;;25.60;;
21661;SDS011;10992;48.170;8.596;2024-02-15T06:14:11;44.92;;;23.75;;
21661;SDS011;10992;48.170;8.596;2024-02-15T06:16:43;49.25;;;25.95;;
21661;SDS011;10992;48.170;8.596;2024-02-15T06:19:10;50.72;;;25.65;;
21661;SDS011;10992;48.170;8.596;2024-02-15T06:21:37;49.40;;;25.80;;
21661;SDS011;10992;48.170;8.596;2024-02-15T06:24:04;44.83;;;23.52;;
21661;SDS011;10992;48.170;8.596;2024-02-15T06:26:31;44.22;;;23.20;;
21661;SDS011;10992;48.170;8.596;2024-02-15T06:29:00;43.58;;;24.63;;
21661;SDS011;10992;48.170;8.596;2024-02-15T06:31:45;44.83;;;25.50;;
21661;SDS011;10992;48.170;8.596;2024-02-15T06:34:31;46.13;;;26.05;;
21661;SDS011;10992;48.170;8.596;2024-02-15T06:40:28;42.13;;;24.25;;
21661;SDS011;10992;48.170;8.596;2024-02-15T06:42:57;41.80;;;23.85;;
21661;SDS011;10992;48.170;8.596;2024-02-15T06:45:23;40.05;;;22.02;;
21661;SDS011;10992;48.170;8.596;2024-02-15T06:47:50;43.15;;;21.90;;
21661;SDS011;10992;48.170;8.596;2024-02-15T06:50:17;40.50;;;22.80;;
21661;SDS011;10992;48.170;8.596;2024-02-15T06:52:44;41.90;;;21.70;;
21661;SDS011;10992;48.170;8.596;2024-02-15T06:55:11;37.50;;;20.48;;
21661;SDS011;10992;48.170;8.596;2024-02-15T06:57:38;34.38;;;20.67;;
21661;SDS011;10992;48.170;8.596;2024-02-15T07:00:09;41.33;;;22.17;;
21661;SDS011;10992;48.170;8.596;2024-02-15T07:02:42;40.60;;;22.65;;
21661;SDS011;10992;48.170;8.596;2024-02-15T07:05:11;39.65;;;23.50;;
21661;SDS011;10992;48.170;8.596;2024-02-15T07:07:37;35.75;;;22.45;;
21661;SDS011;10992;48.170;8.596;2024-02-15T07:10:05;31.17;;;18.60;;
21661;SDS011;10992;48.170;8.596;2024-02-15T07:12:33;22.05;;;15.40;;
21661;SDS011;10992;48.170;8.596;2024-02-15T07:14:59;17.98;;;13.40;;
21661;SDS011;10992;48.170;8.596;2024-02-15T07:17:28;18.17;;;12.30;;
21661;SDS011;10992;48.170;8.596;2024-02-15T07:19:55;16.20;;;10.77;;
21661;SDS011;10992;48.170;8.596;2024-02-15T07:22:22;11.50;;;9.45;;
21661;SDS011;10992;48.170;8.596;2024-02-15T07:24:49;14.70;;;9.90;;
21661;SDS011;10992;48.170;8.596;2024-02-15T07:27:16;12.77;;;9.63;;
21661;SDS011;10992;48.170;8.596;2024-02-15T07:29:44;12.90;;;9.40;;
21661;SDS011;10992;48.170;8.596;2024-02-15T07:32:11;12.38;;;9.50;;
21661;SDS011;10992;48.170;8.596;2024-02-15T07:34:38;16.67;;;10.52;;
21661;SDS011;10992;48.170;8.596;2024-02-15T07:37:06;21.90;;;13.73;;
21661;SDS011;10992;48.170;8.596;2024-02-15T07:39:33;16.73;;;12.70;;
21661;SDS011;10992;48.170;8.596;2024-02-15T07:42:02;15.18;;;11.27;;
21661;SDS011;10992;48.170;8.596;2024-02-15T07:44:31;16.52;;;10.40;;
21661;SDS011;10992;48.170;8.596;2024-02-15T07:46:58;12.82;;;9.50;;
21661;SDS011;10992;48.170;8.596;2024-02-15T07:49:28;11.35;;;9.18;;
21661;SDS011;10992;48.170;8.596;2024-02-15T07:51:55;13.10;;;8.85;;
21661;SDS011;10992;48.170;8.596;2024-02-15T07:54:23;12.57;;;8.43;;
21661;SDS011;10992;48.170;8.596;2024-02-15T07:56:50;11.60;;;8.77;;
21661;SDS011;10992;48.170;8.596;2024-02-15T07:59:19;9.32;;;7.60;;
21661;SDS011;10992;48.170;8.596;2024-02-15T08:01:46;15.73;;;8.15;;
21661;SDS011;10992;48.170;8.596;2024-02-15T08:04:17;9.02;;;6.43;;
21661;SDS011;10992;48.170;8.596;2024-02-15T08:06:44;8.80;;;6.35;;
21661;SDS011;10992;48.170;8.596;2024-02-15T08:09:11;7.97;;;5.85;;
21661;SDS011;10992;48.170;8.596;2024-02-15T08:11:41;7.30;;;5.57;;
21661;SDS011;10992;48.170;8.596;2024-02-15T08:14:08;8.38;;;6.00;;
21661;SDS011;10992;48.170;8.596;2024-02-15T08:16:40;8.75;;;5.63;;
21661;SDS011;10992;48.170;8.596;2024-02-15T08:19:08;13.63;;;6.65;;
21661;SDS011;10992;48.170;8.596;2024-02-15T08:21:35;8.80;;;5.82;;
21661;SDS011;10992;48.170;8.596;2024-02-15T08:24:03;10.57;;;6.60;;
21661;SDS011;10992;48.170;8.596;2024-02-15T08:26:32;8.52;;;6.55;;
21661;SDS011;10992;48.170;8.596;2024-02-15T08:28:59;8.98;;;6.85;;
21661;SDS011;10992;48.170;8.596;2024-02-15T08:31:26;10.07;;;6.80;;
21661;SDS011;10992;48.170;8.596;2024-02-15T08:33:53;7.20;;;6.15;;
21661;SDS011;10992;48.170;8.596;2024-02-15T08:36:20;7.95;;;6.18;;
21661;SDS011;10992;48.170;8.596;2024-02-15T08:38:48;8.23;;;6.35;;
21661;SDS011;10992;48.170;8.596;2024-02-15T08:41:16;8.43;;;5.80;;
21661;SDS011;10992;48.170;8.596;2024-02-15T08:43:47;9.90;;;5.57;;
21661;SDS011;10992;48.170;8.596;2024-02-15T08:46:16;8.00;;;5.55;;
21661;SDS011;10992;48.170;8.596;2024-02-15T08:48:43;8.73;;;5.72;;
21661;SDS011;10992;48.170;8.596;2024-02-15T08:51:11;7.43;;;5.40;;
21661;SDS011;10992;48.170;8.596;2024-02-15T08:53:38;9.07;;;6.05;;
21661;SDS011;10992;48.170;8.596;2024-02-15T08:56:05;8.80;;;5.35;;
21661;SDS011;10992;48.170;8.596;2024-02-15T08:58:32;8.52;;;5.03;;
21661;SDS011;10992;48.170;8.596;2024-02-15T09:00:59;8.65;;;4.50;;
21661;SDS011;10992;48.170;8.596;2024-02-15T09:03:26;7.35;;;4.45;;
21661;SDS011;10992;48.170;8.596;2024-02-15T09:05:53;6.10;;;4.70;;
21661;SDS011;10992;48.170;8.596;2024-02-15T09:08:20;7.15;;;4.47;;
21661;SDS011;10992;48.170;8.596;2024-02-15T09:10:49;6.43;;;4.90;;
21661;SDS011;10992;48.170;8.596;2024-02-15T09:13:16;7.25;;;4.70;;
21661;SDS011;10992;48.170;8.596;2024-02-15T09:15:43;6.60;;;4.82;;
21661;SDS011;10992;48.170;8.596;2024-02-15T09:18:10;5.97;;;4.40;;
21661;SDS011;10992;48.170;8.596;2024-02-15T09:20:37;5.80;;;4.63;;
21661;SDS011;10992;48.170;8.596;2024-02-15T09:23:06;7.10;;;4.95;;
21661;SDS011;10992;48.170;8.596;2024-02-15T09:25:38;8.52;;;5.30;;
21661;SDS011;10992;48.170;8.596;2024-02-15T09:28:05;7.78;;;5.25;;
21661;SDS011;10992;48.170;8.596;2024-02-15T09:30:32;8.00;;;5.30;;
21661;SDS011;10992;48.170;8.596;2024-02-15T09:33:01;6.93;;;5.13;;
21661;SDS011;10992;48.170;8.596;2024-02-15T09:35:32;6.47;;;4.70;;
21661;SDS011;10992;48.170;8.596;2024-02-15T09:37:59;7.78;;;4.95;;
21661;SDS011;10992;48.170;8.596;2024-02-15T09:40:26;9.63;;;5.07;;
21661;SDS011;10992;48.170;8.596;2024-02-15T09:42:55;7.45;;;4.25;;
21661;SDS011;10992;48.170;8.596;2024-02-15T09:45:22;6.25;;;3.80;;
21661;SDS011;10992;48.170;8.596;2024-02-15T09:47:51;6.60;;;4.07;;
21661;SDS011;10992;48.170;8.596;2024-02-15T09:50:19;8.05;;;4.70;;
21661;SDS011;10992;48.170;8.596;2024-02-15T09:52:51;5.68;;;3.72;;
21661;SDS011;10992;48.170;8.596;2024-02-15T09:55:20;6.50;;;3.70;;
21661;SDS011;10992;48.170;8.596;2024-02-15T09:57:54;7.57;;;3.78;;
21661;SDS011;10992;48.170;8.596;2024-02-15T10:00:36;4.75;;;3.47;;
21661;SDS011;10992;48.170;8.596;2024-02-15T10:03:05;5.55;;;3.85;;
21661;SDS011;10992;48.170;8.596;2024-02-15T10:05:33;5.13;;;3.40;;
21661;SDS011;10992;48.170;8.596;2024-02-15T10:08:01;5.10;;;3.80;;
21661;SDS011;10992;48.170;8.596;2024-02-15T10:10:30;5.90;;;3.83;;
21661;SDS011;10992;48.170;8.596;2024-02-15T10:13:00;5.55;;;3.92;;
21661;SDS011;10992;48.170;8.596;2024-02-15T10:15:37;5.03;;;3.58;;
21661;SDS011;10992;48.170;8.596;2024-02-15T10:18:06;5.05;;;3.60;;
21661;SDS011;10992;48.170;8.596;2024-02-15T10:20:39;5.70;;;3.72;;
21661;SDS011;10992;48.170;8.596;2024-02-15T10:23:12;4.72;;;3.75;;
21661;SDS011;10992;48.170;8.596;2024-02-15T10:25:45;6.40;;;4.15;;
21661;SDS011;10992;48.170;8.596;2024-02-15T10:28:13;7.70;;;4.25;;
21661;SDS011;10992;48.170;8.596;2024-02-15T10:30:42;6.10;;;4.22;;
21661;SDS011;10992;48.170;8.596;2024-02-15T10:33:45;6.65;;;4.13;;
21661;SDS011;10992;48.170;8.596;2024-02-15T10:38:34;6.03;;;3.42;;
21661;SDS011;10992;48.170;8.596;2024-02-15T10:41:04;4.80;;;3.40;;
21661;SDS011;10992;48.170;8.596;2024-02-15T10:43:35;4.95;;;3.55;;
21661;SDS011;10992;48.170;8.596;2024-02-15T10:46:05;9.32;;;3.72;;
21661;SDS011;10992;48.170;8.596;2024-02-15T10:48:36;5.10;;;3.97;;
21661;SDS011;10992;48.170;8.596;2024-02-15T10:51:06;7.53;;;3.80;;
21661;SDS011;10992;48.170;8.596;2024-02-15T10:53:36;6.05;;;4.13;;
21661;SDS011;10992;48.170;8.596;2024-02-15T10:56:12;7.38;;;3.30;;
21661;SDS011;10992;48.170;8.596;2024-02-15T10:58:56;6.35;;;3.30;;
21661;SDS011;10992;48.170;8.596;2024-02-15T11:01:31;5.57;;;3.25;;
21661;SDS011;10992;48.170;8.596;2024-02-15T11:03:59;8.07;;;3.65;;
21661;SDS011;10992;48.170;8.596;2024-02-15T11:06:29;6.38;;;3.47;;
21661;SDS011;10992;48.170;8.596;2024-02-15T11:08:59;4.72;;;3.10;;
21661;SDS011;10992;48.170;8.596;2024-02-15T11:11:28;4.50;;;3.15;;
21661;SDS011;10992;48.170;8.596;2024-02-15T11:16:49;4.32;;;3.05;;
21661;SDS011;10992;48.170;8.596;2024-02-15T11:19:50;4.82;;;2.90;;
21661;SDS011;10992;48.170;8.596;2024-02-15T11:22:14;4.80;;;3.20;;
21661;SDS011;10992;48.170;8.596;2024-02-15T11:24:49;4.07;;;3.10;;
21661;SDS011;10992;48.170;8.596;2024-02-15T11:27:24;5.97;;;3.20;;
21661;SDS011;10992;48.170;8.596;2024-02-15T11:29:56;5.65;;;3.33;;
21661;SDS011;10992;48.170;8.596;2024-02-15T11:32:38;5.00;;;2.90;;
21661;SDS011;10992;48.170;8.596;2024-02-15T11:35:14;3.33;;;2.63;;
21661;SDS011;10992;48.170;8.596;2024-02-15T11:40:15;2.90;;;1.92;;
21661;SDS011;10992;48.170;8.596;2024-02-15T11:42:46;4.28;;;2.30;;
21661;SDS011;10992;48.170;8.596;2024-02-15T11:45:14;1.85;;;1.58;;
21661;SDS011;10992;48.170;8.596;2024-02-15T11:47:47;2.75;;;2.03;;
21661;SDS011;10992;48.170;8.596;2024-02-15T11:50:17;5.00;;;1.65;;
21661;SDS011;10992;48.170;8.596;2024-02-15T11:52:45;2.72;;;1.73;;
21661;SDS011;10992;48.170;8.596;2024-02-15T11:55:18;3.22;;;1.60;;
21661;SDS011;10992;48.170;8.596;2024-02-15T12:00:42;2.45;;;1.83;;
21661;SDS011;10992;48.170;8.596;2024-02-15T12:03:28;10.60;;;2.28;;
21661;SDS011;10992;48.170;8.596;2024-02-15T12:06:29;3.50;;;1.73;;
21661;SDS011;10992;48.170;8.596;2024-02-15T12:09:19;2.80;;;1.38;;
21661;SDS011;10992;48.170;8.596;2024-02-15T12:12:05;2.17;;;1.40;;
21661;SDS011;10992;48.170;8.596;2024-02-15T12:15:00;3.20;;;1.52;;
21661;SDS011;10992;48.170;8.596;2024-02-15T12:17:48;2.05;;;1.30;;
21661;SDS011;10992;48.170;8.596;2024-02-15T12:20:38;3.05;;;1.52;;
21661;SDS011;10992;48.170;8.596;2024-02-15T12:23:05;2.60;;;1.30;;
21661;SDS011;10992;48.170;8.596;2024-02-15T12:25:34;9.38;;;1.70;;
21661;SDS011;10992;48.170;8.596;2024-02-15T12:28:01;2.03;;;1.40;;
21661;SDS011;10992;48.170;8.596;2024-02-15T12:30:34;3.53;;;1.70;;
21661;SDS011;10992;48.170;8.596;2024-02-15T12:33:10;2.28;;;1.52;;
21661;SDS011;10992;48.170;8.596;2024-02-15T12:35:38;2.40;;;1.45;;
21661;SDS011;10992;48.170;8.596;2024-02-15T12:38:05;2.10;;;1.50;;
21661;SDS011;10992;48.170;8.596;2024-02-15T12:40:35;1.92;;;1.38;;
21661;SDS011;10992;48.170;8.596;2024-02-15T12:43:06;4.28;;;1.30;;
21661;SDS011;10992;48.170;8.596;2024-02-15T12:45:36;2.10;;;1.23;;
21661;SDS011;10992;48.170;8.596;2024-02-15T12:48:07;1.67;;;1.00;;
21661;SDS011;10992;48.170;8.596;2024-02-15T12:50:36;1.98;;;1.08;;
21661;SDS011;10992;48.170;8.596;2024-02-15T12:53:04;3.30;;;1.50;;
21661;SDS011;10992;48.170;8.596;2024-02-15T12:55:33;2.58;;;1.35;;
21661;SDS011;10992;48.170;8.596;2024-02-15T12:58:02;2.75;;;1.17;;
21661;SDS011;10992;48.170;8.596;2024-02-15T13:00:39;5.70;;;1.50;;
21661;SDS011;10992;48.170;8.596;2024-02-15T13:03:08;1.50;;;1.10;;
21661;SDS011;10992;48.170;8.596;2024-02-15T13:05:36;3.55;;;1.10;;
21661;SDS011;10992;48.170;8.596;2024-02-15T13:08:04;1.90;;;1.00;;
21661;SDS011;10992;48.170;8.596;2024-02-15T13:10:36;1.85;;;0.90;;
21661;SDS011;10992;48.170;8.596;2024-02-15T13:13:05;2.40;;;0.93;;
21661;SDS011;10992;48.170;8.596;2024-02-15T13:15:32;1.50;;;0.90;;
21661;SDS011;10992;48.170;8.596;2024-02-15T13:18:01;1.00;;;0.80;;
21661;SDS011;10992;48.170;8.596;2024-02-15T13:20:32;3.20;;;1.58;;
21661;SDS011;10992;48.170;8.596;2024-02-15T13:23:00;2.17;;;1.20;;
21661;SDS011;10992;48.170;8.596;2024-02-15T13:25:29;2.78;;;1.60;;
21661;SDS011;10992;48.170;8.596;2024-02-15T13:27:56;2.20;;;1.50;;
21661;SDS011;10992;48.170;8.596;2024-02-15T13:30:26;3.70;;;1.40;;
21661;SDS011;10992;48.170;8.596;2024-02-15T13:32:56;1.58;;;1.15;;
21661;SDS011;10992;48.170;8.596;2024-02-15T13:35:24;2.35;;;1.00;;
21661;SDS011;10992;48.170;8.596;2024-02-15T13:37:53;2.33;;;1.10;;
21661;SDS011;10992;48.170;8.596;2024-02-15T13:40:21;1.45;;;0.90;;
21661;SDS011;10992;48.170;8.596;2024-02-15T13:42:50;4.88;;;1.20;;
21661;SDS011;10992;48.170;8.596;2024-02-15T13:45:28;1.63;;;0.90;;
21661;SDS011;10992;48.170;8.596;2024-02-15T13:47:57;2.08;;;1.00;;
21661;SDS011;10992;48.170;8.596;2024-02-15T13:50:25;2.63;;;1.27;;
21661;SDS011;10992;48.170;8.596;2024-02-15T13:52:52;2.50;;;1.23;;
21661;SDS011;10992;48.170;8.596;2024-02-15T13:55:19;3.50;;;1.25;;
21661;SDS011;10992;48.170;8.596;2024-02-15T13:57:49;2.08;;;1.10;;
21661;SDS011;10992;48.170;8.596;2024-02-15T14:00:16;2.35;;;1.17;;
21661;SDS011;10992;48.170;8.596;2024-02-15T14:02:52;2.60;;;1.00;;
21661;SDS011;10992;48.170;8.596;2024-02-15T14:05:22;2.05;;;1.10;;
21661;SDS011;10992;48.170;8.596;2024-02-15T14:07:50;0.90;;;0.63;;
21661;SDS011;10992;48.170;8.596;2024-02-15T14:10:23;1.70;;;1.05;;
21661;SDS011;10992;48.170;8.596;2024-02-15T14:12:55;1.08;;;0.70;;
21661;SDS011;10992;48.170;8.596;2024-02-15T14:15:26;1.95;;;0.70;;
21661;SDS011;10992;48.170;8.596;2024-02-15T14:17:54;2.85;;;0.68;;
21661;SDS011;10992;48.170;8.596;2024-02-15T14:20:22;1.00;;;0.60;;
21661;SDS011;10992;48.170;8.596;2024-02-15T14:22:50;1.48;;;1.05;;
21661;SDS011;10992;48.170;8.596;2024-02-15T14:25:24;1.63;;;0.93;;
21661;SDS011;10992;48.170;8.596;2024-02-15T14:27:55;1.27;;;0.70;;
21661;SDS011;10992;48.170;8.596;2024-02-15T14:30:24;1.98;;;0.80;;
21661;SDS011;10992;48.170;8.596;2024-02-15T14:33:09;2.05;;;0.73;;
21661;SDS011;10992;48.170;8.596;2024-02-15T14:35:45;1.38;;;0.80;;
21661;SDS011;10992;48.170;8.596;2024-02-15T14:38:12;0.95;;;0.65;;
21661;SDS011;10992;48.170;8.596;2024-02-15T14:40:42;2.25;;;1.02;;
21661;SDS011;10992;48.170;8.596;2024-02-15T14:43:24;4.30;;;0.77;;
21661;SDS011;10992;48.170;8.596;2024-02-15T14:45:54;1.60;;;0.70;;
21661;SDS011;10992;48.170;8.596;2024-02-15T14:48:23;1.15;;;0.40;;
21661;SDS011;10992;48.170;8.596;2024-02-15T14:50:51;1.15;;;0.65;;
21661;SDS011;10992;48.170;8.596;2024-02-15T14:53:19;1.73;;;0.60;;
21661;SDS011;10992;48.170;8.596;2024-02-15T14:55:46;1.85;;;0.43;;
21661;SDS011;10992;48.170;8.596;2024-02-15T14:58:13;0.85;;;0.60;;
21661;SDS011;10992;48.170;8.596;2024-02-15T15:00:43;1.27;;;0.80;;
21661;SDS011;10992;48.170;8.596;2024-02-15T15:03:12;1.05;;;0.50;;
21661;SDS011;10992;48.170;8.596;2024-02-15T15:05:40;1.58;;;0.85;;
21661;SDS011;10992;48.170;8.596;2024-02-15T15:08:29;3.03;;;0.85;;
21661;SDS011;10992;48.170;8.596;2024-02-15T15:11:15;1.88;;;1.05;;